BBU weather

Băneasa International Airport
Bucharest, Bucureşti, Romania

Public forecast

Using degrees Celsius for public forecast. Weather courtesy of forecast.io.

Current aviation weather report (METAR) for Băneasa International Airport

Retrieved 2019/10/22 09:30 UTC (9 minutes ago):

LRBS 220930Z 07004KT 1800 BR OVC002 13/13 Q1026 BECMG 5000 BKN010

Aviation forecast (TAF) for Băneasa International Airport

Retrieved 2019/10/22 06:37 UTC (3 hours ago):

TAF LRBS 220500Z 2206/2306 VRB04KT 0300 FG VV001 BECMG 2206/2208 0800 VV002 BECMG 2208/2209 3000 BR NSC BECMG 2209/2210 CAVOK BECMG 2221/2223 5000 BR BECMG 2223/2301 1500 BR BKN005 TEMPO 2302/2306 0600 FG VV002